M I D A S
Marine Information and Data Acquisition System
Tripno 1780 of the Zeeleeuw from 2009-09-18 06:49:10 to 2009-09-18 15:24:44
Back to CruiseResearch ActivitiesStationsMapUnderway DataData graphs

EquipmentUnitsComment
TimeDGPSUTC
LatitudeDGPSDM.mWGS84
LongitudeDGPSDM.mWGS84
TemperatureSBE03/SBE38deg celciusITS90
ConductivitySBE21S/mITS90
SalinitySBE21 Practical Salinity Units
ChlorophylAChelsea fluorimeterg/lCalibrated in Aceton
Missing or incorrect values are displayed as -999
Sea surface data collected by the RV Zeeleeuw from 2009-09-18 06:34:36 to 2009-09-18 15:24:44
Time Latitude Longitude Temperature Conductivity Salinity ChlorophylA
2009-09-18 06:35:39 51°13.663 2°55.958 19.8684 0.028521 0.159012 46.847682
2009-09-18 06:36:38 51°13.663 2°55.959 19.8831 0.028521 0.159045 46.812858
2009-09-18 06:37:38 51°13.663 2°55.959 19.8818 0.028521 0.159079 46.778034
2009-09-18 06:38:38 51°13.663 2°55.959 19.8871 0.028521 0.159115 46.743209
2009-09-18 06:39:38 51°13.663 2°55.959 19.885 0.028418 0.158571 46.673561
2009-09-18 06:40:38 51°13.663 2°55.959 19.8921 0.028418 0.158604 46.673561
2009-09-18 06:41:37 51°13.663 2°55.959 19.9011 0.028418 0.158637 46.638737
2009-09-18 06:42:38 51°13.662 2°55.96 19.9091 0.028418 0.158668 46.603913
2009-09-18 06:43:38 51°13.661 2°55.96 19.9098 0.028418 0.158693 46.569089
2009-09-18 06:44:38 51°13.664 2°55.948 19.8627 0.028418 0.158729 46.534265
2009-09-18 06:45:41 51°13.68 2°55.875 19.8929 0.028418 0.15876 46.464617
2009-09-18 06:46:41 51°13.695 2°55.783 19.9097 0.028418 0.158782 46.429793
2009-09-18 06:47:40 51°13.7 2°55.748 19.9066 0.028418 0.158766 46.394969
2009-09-18 06:48:38 51°13.696 2°55.741 19.9027 0.028418 0.158807 46.394969
2009-09-18 06:49:40 51°13.718 2°55.719 19.8808 0.028418 0.158763 46.325321
2009-09-18 06:50:38 51°13.805 2°55.65 19.8586 0.028418 0.158835 46.290497
2009-09-18 06:51:38 51°13.921 2°55.564 19.8915 0.028418 0.158872 46.255673
2009-09-18 06:52:37 51°14.045 2°55.471 19.8922 0.028418 0.158908 46.220849
2009-09-18 06:53:38 51°14.17 2°55.365 19.9101 0.028418 0.158914 46.186025
2009-09-18 06:54:37 51°14.277 2°55.211 19.9092 0.028418 0.158894 46.186025
2009-09-18 06:55:37 51°14.37 2°54.989 19.8515 0.028418 0.15893 46.151201
2009-09-18 06:56:38 51°14.49 2°54.77 19.8265 0.028418 0.159056 46.186025
2009-09-18 06:57:38 51°14.616 2°54.551 19.827 0.028418 0.159498 46.081552
2009-09-18 06:58:38 51°14.717 2°54.289 19.7971 0.028418 0.159922 46.116376
2009-09-18 06:59:38 51°14.812 2°54.024 19.8073 0.028418 0.160067 46.011904
2009-09-18 07:00:38 51°14.907 2°53.758 19.822 0.028418 0.160216 45.942256
2009-09-18 07:01:38 51°15.004 2°53.498 19.7873 0.028418 0.160336 45.907432
2009-09-18 07:02:38 51°15.098 2°53.233 19.7962 0.028418 0.160476 45.80296
2009-09-18 07:03:38 51°15.192 2°52.966 19.8083 0.028418 0.160548 45.733312
2009-09-18 07:04:38 51°15.287 2°52.7 19.7886 0.028521 0.161217 45.698488
2009-09-18 07:05:38 51°15.384 2°52.434 19.7847 0.028624 0.161859 45.663664
2009-09-18 07:06:38 51°15.477 2°52.163 19.8148 0.028521 0.161295 45.594016
2009-09-18 07:07:38 51°15.571 2°51.887 19.8005 0.028521 0.161353 45.559192
2009-09-18 07:08:38 51°15.667 2°51.62 19.8393 0.028521 0.161402 45.524368
2009-09-18 07:09:38 51°15.763 2°51.355 19.8155 0.029139 0.164912 45.419895
2009-09-18 07:10:38 51°15.859 2°51.089 19.8418 0.029345 0.166046 45.419895
2009-09-18 07:11:38 51°15.959 2°50.834 19.8641 0.029139 0.164818 45.315423
2009-09-18 07:12:38 51°16.069 2°50.595 19.8845 0.028933 0.163672 45.210951
2009-09-18 07:13:38 51°16.188 2°50.377 19.9065 0.029242 0.165509 45.176127
2009-09-18 07:14:38 51°16.317 2°50.176 19.9294 0.028933 0.163772 45.071655
2009-09-18 07:15:38 51°16.458 2°50.003 19.9521 0.02883 0.163188 44.932359
2009-09-18 07:16:38 51°16.605 2°49.845 19.9708 0.02883 0.163214 44.897535
2009-09-18 07:17:38 51°16.755 2°49.693 19.996 0.028727 0.162714 44.862711
2009-09-18 07:18:38 51°16.9 2°49.555 20.0262 0.029139 0.165073 44.793062
2009-09-18 07:19:38 51°17.046 2°49.443 20.0544 0.029036 0.164629 44.793062
2009-09-18 07:20:38 51°17.193 2°49.319 20.0781 0.028727 0.162802 44.723414
2009-09-18 07:21:38 51°17.342 2°49.193 20.1026 0.02883 0.163378 44.723414
2009-09-18 07:22:38 51°17.492 2°49.063 20.1283 0.029036 0.164606 44.68859
2009-09-18 07:23:38 51°17.641 2°48.93 20.1584 0.029345 0.166414 44.618942
2009-09-18 07:24:38 51°17.795 2°48.803 20.1829 0.02955 0.167608 44.584118
2009-09-18 07:25:38 51°17.951 2°48.677 20.2206 0.029345 0.166417 44.618942
2009-09-18 07:26:38 51°18.105 2°48.544 20.2483 0.029345 0.166438 44.51447
2009-09-18 07:27:38 51°18.261 2°48.401 20.2786 0.029447 0.167091 44.51447
2009-09-18 07:28:38 51°18.418 2°48.26 20.3007 0.02883 0.163537 44.479646
2009-09-18 07:29:38 51°18.572 2°48.109 20.3146 0.02883 0.16362 44.444822
2009-09-18 07:30:38 51°18.721 2°47.945 20.3496 0.02883 0.163735 44.409998
2009-09-18 07:31:38 51°18.868 2°47.779 20.3812 0.02883 0.163791 44.375174
2009-09-18 07:32:38 51°19.014 2°47.608 20.5168 0.028727 0.163227 44.305526
2009-09-18 07:33:38 51°19.159 2°47.438 20.4202 0.029139 0.165663 44.932359
2009-09-18 07:34:38 51°19.304 2°47.269 20.4173 0.02955 0.168091 45.071655
2009-09-18 07:35:38 51°19.45 2°47.1 20.4276 0.029345 0.166936 45.210951
2009-09-18 07:36:38 51°19.596 2°46.931 20.429 0.029139 0.165717 45.489544
2009-09-18 07:37:38 51°19.742 2°46.764 20.4422 0.029242 0.166377 45.559192
2009-09-18 07:38:38 51°19.891 2°46.599 20.4519 0.029345 0.16696 45.733312
2009-09-18 07:39:38 51°20.041 2°46.437 20.4618 0.029242 0.166408 45.942256
2009-09-18 07:40:38 51°20.198 2°46.296 20.473 0.029036 0.16527 45.907432
2009-09-18 07:41:38 51°20.356 2°46.157 20.4827 0.02883 0.164126 46.011904
2009-09-18 07:42:38 51°20.515 2°46.016 20.4908 0.02955 0.168286 46.081552
2009-09-18 07:43:38 51°20.672 2°45.877 20.5012 0.02955 0.168326 46.081552
2009-09-18 07:44:37 51°20.828 2°45.739 20.5107 0.029242 0.166583 46.116376
2009-09-18 07:45:38 51°20.988 2°45.598 20.5194 0.02955 0.168366 45.698488
2009-09-18 07:46:38 51°21.145 2°45.455 20.5298 0.029036 0.165429 45.106479
2009-09-18 07:47:37 51°21.3 2°45.318 20.5404 0.029962 0.170783 45.768136
2009-09-18 07:48:38 51°21.459 2°45.177 20.5508 0.029139 0.166018 46.847682
2009-09-18 07:49:38 51°21.615 2°45.041 20.5618 0.029345 0.167251 47.753107
2009-09-18 07:50:38 51°21.772 2°44.907 20.5695 0.029242 0.166664 48.37994
2009-09-18 07:51:38 51°21.925 2°44.771 20.5787 0.029756 0.169671 48.937125
2009-09-18 07:52:37 51°22.074 2°44.637 20.5876 0.029139 0.166129 49.49431
2009-09-18 07:53:38 51°22.231 2°44.497 20.5977 0.029139 0.166126 49.738078
2009-09-18 07:54:38 51°22.386 2°44.361 20.6061 0.029756 0.169715 49.912198
2009-09-18 07:55:38 51°22.537 2°44.223 20.6153 0.029036 0.165585 50.051495
2009-09-18 07:56:38 51°22.691 2°44.087 20.6259 0.029345 0.16736 49.563958
2009-09-18 07:57:38 51°22.843 2°43.944 20.6358 0.029139 0.166178 49.459486
2009-09-18 07:58:37 51°22.995 2°43.803 20.646 0.028933 0.165013 49.738078
2009-09-18 07:59:38 51°23.151 2°43.658 20.6525 0.029036 0.165645 49.703254
2009-09-18 08:00:38 51°23.305 2°43.516 20.6621 0.029653 0.169223 49.703254
2009-09-18 08:01:37 51°23.459 2°43.382 20.6666 0.029447 0.168048 49.703254
2009-09-18 08:02:38 51°23.62 2°43.243 20.6776 0.029242 0.166868 49.703254
2009-09-18 08:03:37 51°23.774 2°43.104 20.6858 0.029859 0.170426 49.633606
2009-09-18 08:04:38 51°23.935 2°42.965 20.6923 0.029036 0.165672 49.633606
2009-09-18 08:05:37 51°24.087 2°42.833 20.7039 0.029447 0.168079 49.598782
2009-09-18 08:06:38 51°24.251 2°42.713 20.7176 0.029139 0.166308 49.598782
2009-09-18 08:07:38 51°24.413 2°42.596 20.7241 0.029036 0.165738 49.529134
2009-09-18 08:08:38 51°24.574 2°42.498 20.7336 0.030477 0.174115 49.49431
2009-09-18 08:09:38 51°24.739 2°42.428 20.7393 0.029139 0.166335 49.563958
2009-09-18 08:10:38 51°24.903 2°42.349 20.7508 0.029345 0.167562 49.459486
2009-09-18 08:11:38 51°25.067 2°42.271 20.7554 0.029653 0.169346 49.355013
2009-09-18 08:12:38 51°25.231 2°42.192 20.7675 0.029345 0.167601 49.250541
2009-09-18 08:13:38 51°25.392 2°42.09 20.7765 0.029345 0.167577 48.20582
2009-09-18 08:14:38 51°25.546 2°41.937 20.7861 0.029756 0.169984 47.822755
2009-09-18 08:15:38 51°25.698 2°41.776 20.7964 0.029242 0.166977 47.787931
2009-09-18 08:16:38 51°25.852 2°41.625 20.8036 0.02955 0.168836 47.718283
2009-09-18 08:17:38 51°26.011 2°41.489 20.8067 0.029653 0.169399 47.648635
2009-09-18 08:18:38 51°26.167 2°41.351 20.8253 0.029447 0.168201 47.613811
2009-09-18 08:19:38 51°26.323 2°41.213 20.8313 0.029447 0.168241 47.648635
2009-09-18 08:20:38 51°26.48 2°41.078 20.8358 0.029242 0.167053 47.718283
2009-09-18 08:21:38 51°26.636 2°40.949 20.8466 0.030065 0.171862 47.718283
2009-09-18 08:22:38 51°26.794 2°40.824 20.8553 0.029447 0.168254 47.683459
2009-09-18 08:23:38 51°26.952 2°40.7 20.862 0.029345 0.167653 47.509339
2009-09-18 08:24:38 51°27.108 2°40.577 20.8742 0.029962 0.171286 47.683459
2009-09-18 08:25:38 51°27.265 2°40.452 20.8834 0.030168 0.172495 47.648635
2009-09-18 08:26:38 51°27.422 2°40.332 20.8889 0.0313 0.179066 47.613811
2009-09-18 08:27:38 51°27.58 2°40.212 20.9061 0.029859 0.170656 47.056626
2009-09-18 08:28:37 51°27.733 2°40.094 20.912 0.029447 0.168284 47.126274
2009-09-18 08:29:38 51°27.896 2°40.024 20.9181 0.031609 0.180859 47.230746
2009-09-18 08:30:49 51°28.078 2°40.071 20.9361 0.02955 0.168928 47.26557
2009-09-18 08:31:58 51°28.25 2°40.154 20.947 0.030682 0.175502 47.195922
2009-09-18 08:32:58 51°28.395 2°40.235 20.952 0.029447 0.168309 47.26557
2009-09-18 08:33:58 51°28.534 2°40.338 20.9627 0.02955 0.168993 47.370042
2009-09-18 08:34:58 51°28.675 2°40.443 20.9742 0.02955 0.168947 47.335218
2009-09-18 08:35:58 51°28.814 2°40.549 20.9822 0.029962 0.171355 47.404866
2009-09-18 08:36:58 51°28.911 2°40.734 20.9923 0.029447 0.168352 47.230746
2009-09-18 08:37:58 51°28.99 2°40.948 21.0061 0.029242 0.167178 46.603913
2009-09-18 08:38:58 51°29.077 2°41.157 21.0119 0.030065 0.171969 46.429793
2009-09-18 08:39:58 51°29.167 2°41.362 21.0238 0.029756 0.17018 46.534265
2009-09-18 08:40:58 51°29.251 2°41.576 21.0369 0.029139 0.166568 46.534265
2009-09-18 08:41:58 51°29.329 2°41.796 21.0397 0.028933 0.165434 46.673561
2009-09-18 08:42:58 51°29.406 2°42.015 21.0539 0.029242 0.167202 46.151201
2009-09-18 08:43:58 51°29.489 2°42.234 21.0591 0.029139 0.166626 46.151201
2009-09-18 08:44:58 51°29.572 2°42.454 21.0724 0.028933 0.165419 46.255673
2009-09-18 08:45:58 51°29.654 2°42.678 21.0817 0.029036 0.165986 46.429793
2009-09-18 08:46:58 51°29.738 2°42.896 21.0919 0.028933 0.165422 46.464617
2009-09-18 08:47:58 51°29.821 2°43.116 21.0993 0.029036 0.166035 46.812858
2009-09-18 08:48:58 51°29.903 2°43.334 21.1105 0.028933 0.165437 46.986978
2009-09-18 08:49:58 51°29.985 2°43.556 21.1153 0.02883 0.164852 47.195922
2009-09-18 08:50:58 51°30.068 2°43.777 21.1295 0.028933 0.165419 46.743209
2009-09-18 08:51:58 51°30.15 2°43.996 21.1314 0.028933 0.165431 46.882506
2009-09-18 08:52:58 51°30.234 2°44.216 21.1463 0.028933 0.165443 46.91733
2009-09-18 08:53:58 51°30.316 2°44.44 21.154 0.028933 0.165428 46.986978
2009-09-18 08:54:58 51°30.4 2°44.662 21.1634 0.02883 0.164819 47.056626
2009-09-18 08:55:58 51°30.483 2°44.884 21.1711 0.028933 0.165416 47.021802
2009-09-18 08:56:58 51°30.564 2°45.105 21.177 0.028933 0.165422 47.056626
2009-09-18 08:57:58 51°30.645 2°45.328 21.1901 0.02883 0.164834 47.021802
2009-09-18 08:58:58 51°30.729 2°45.547 21.1978 0.029139 0.166641 47.056626
2009-09-18 08:59:58 51°30.815 2°45.767 21.2086 0.028933 0.165419 47.021802
2009-09-18 09:00:58 51°30.898 2°45.989 21.2136 0.029139 0.166602 46.464617
2009-09-18 09:01:58 51°30.982 2°46.209 21.2294 0.028933 0.165416 46.499441
2009-09-18 09:02:58 51°31.068 2°46.431 21.2377 0.028933 0.165407 46.429793
2009-09-18 09:03:58 51°31.152 2°46.656 21.2466 0.029139 0.166587 46.673561
2009-09-18 09:04:58 51°31.236 2°46.878 21.2472 0.029036 0.165998 47.09145
2009-09-18 09:05:58 51°31.319 2°47.103 21.2682 0.029139 0.166641 47.474515
2009-09-18 09:06:58 51°31.402 2°47.326 21.2795 0.029036 0.16601 47.822755
2009-09-18 09:07:58 51°31.485 2°47.551 21.2819 0.029242 0.167202 48.101348
2009-09-18 09:08:58 51°31.567 2°47.777 21.2944 0.028933 0.165413 48.310292
2009-09-18 09:09:58 51°31.649 2°48.002 21.2999 0.029036 0.166026 48.449588
2009-09-18 09:10:58 51°31.734 2°48.225 21.3114 0.029242 0.167196 48.484412
2009-09-18 09:11:58 51°31.818 2°48.449 21.3228 0.029036 0.166001 48.484412
2009-09-18 09:12:58 51°31.902 2°48.673 21.3214 0.029036 0.165986 48.484412
2009-09-18 09:13:58 51°31.984 2°48.901 21.3415 0.028933 0.165407 48.345116
2009-09-18 09:14:58 51°32.066 2°49.13 21.3388 0.028933 0.16538 48.37994
2009-09-18 09:15:58 51°32.154 2°49.35 21.3607 0.029036 0.166016 48.240644
2009-09-18 09:16:58 51°32.245 2°49.569 21.3611 0.029036 0.165968 48.240644
2009-09-18 09:17:58 51°32.332 2°49.791 21.3766 0.02883 0.164795 48.170996
2009-09-18 09:18:58 51°32.419 2°50.012 21.3893 0.028933 0.165365 48.101348
2009-09-18 09:19:58 51°32.505 2°50.233 21.3946 0.029242 0.167151 48.066524
2009-09-18 09:20:58 51°32.593 2°50.452 21.3936 0.028933 0.165365 48.066524
2009-09-18 09:21:58 51°32.681 2°50.671 21.4038 0.029345 0.167717 48.345116
2009-09-18 09:22:58 51°32.769 2°50.891 21.4211 0.029242 0.167132 47.927227
2009-09-18 09:23:58 51°32.856 2°51.113 21.4277 0.029139 0.166502 47.962051
2009-09-18 09:24:58 51°32.943 2°51.338 21.4382 0.029345 0.167672 47.962051
2009-09-18 09:25:58 51°33.026 2°51.564 21.4517 0.029036 0.165935 47.927227
2009-09-18 09:26:58 51°33.113 2°51.788 21.4583 0.028933 0.165386 47.892403
2009-09-18 09:27:58 51°33.199 2°52.014 21.4636 0.028933 0.165314 47.822755
2009-09-18 09:28:58 51°33.286 2°52.239 21.4665 0.028933 0.165347 48.066524
2009-09-18 09:29:58 51°33.373 2°52.469 21.4846 0.02883 0.164714 47.927227
2009-09-18 09:30:58 51°33.461 2°52.694 21.4947 0.029036 0.165898 46.325321
2009-09-18 09:31:58 51°33.546 2°52.922 21.5042 0.02883 0.164699 46.394969
2009-09-18 09:32:58 51°33.634 2°53.152 21.5137 0.028933 0.165296 46.534265
2009-09-18 09:33:58 51°33.722 2°53.382 21.5215 0.029036 0.165853 46.708385
2009-09-18 09:34:58 51°33.804 2°53.613 21.5325 0.028933 0.165259 46.952154
2009-09-18 09:35:58 51°33.886 2°53.847 21.5404 0.028933 0.165229 47.195922
2009-09-18 09:36:58 51°33.967 2°54.084 21.5452 0.029036 0.165862 47.300394
2009-09-18 09:37:58 51°34.046 2°54.309 21.5494 0.029139 0.166468 47.370042
2009-09-18 09:38:58 51°34.124 2°54.536 21.5597 0.029036 0.165805 47.439691
2009-09-18 09:39:58 51°34.204 2°54.765 21.5721 0.028933 0.165184 47.474515
2009-09-18 09:40:58 51°34.283 2°54.992 21.5851 0.028933 0.165208 47.509339
2009-09-18 09:41:58 51°34.364 2°55.218 21.5886 0.029036 0.165829 47.509339
2009-09-18 09:42:58 51°34.443 2°55.448 21.6033 0.028933 0.165217 47.509339
2009-09-18 09:43:58 51°34.521 2°55.677 21.6104 0.02883 0.164618 47.509339
2009-09-18 09:44:58 51°34.6 2°55.908 21.627 0.029036 0.16579 47.474515
2009-09-18 09:45:58 51°34.68 2°56.138 21.6252 0.02883 0.164585 47.544163
2009-09-18 09:46:58 51°34.76 2°56.368 21.6347 0.029036 0.165717 47.544163
2009-09-18 09:47:58 51°34.839 2°56.6 21.6458 0.028933 0.165196 47.578987
2009-09-18 09:48:58 51°34.92 2°56.83 21.6545 0.029036 0.16576 47.578987
2009-09-18 09:49:58 51°35 2°57.06 21.666 0.028933 0.165109 47.578987
2009-09-18 09:50:58 51°35.081 2°57.288 21.6816 0.028933 0.165118 46.499441
2009-09-18 09:51:58 51°35.161 2°57.519 21.6906 0.02883 0.164516 46.499441
2009-09-18 09:52:58 51°35.242 2°57.755 21.6921 0.028933 0.165112 46.603913
2009-09-18 09:53:58 51°35.324 2°57.987 21.6992 0.029036 0.165666 46.91733
2009-09-18 09:54:58 51°35.407 2°58.219 21.7152 0.029036 0.165645 47.26557
2009-09-18 09:55:58 51°35.489 2°58.453 21.7198 0.028933 0.165106 47.648635
2009-09-18 09:56:58 51°35.572 2°58.688 21.7299 0.029139 0.166268 47.857579
2009-09-18 09:57:58 51°35.652 2°58.922 21.7405 0.028933 0.165025 47.822755
2009-09-18 09:58:58 51°35.685 2°59.176 21.7498 0.030682 0.175148 47.962051
2009-09-18 09:59:58 51°35.593 2°59.413 21.7671 0.02955 0.168586 47.962051
2009-09-18 10:00:58 51°35.464 2°59.623 21.7981 0.0313 0.178701 47.927227
2009-09-18 10:01:58 51°35.331 2°59.831 21.7687 0.029139 0.166147 47.927227
2009-09-18 10:02:58 51°35.195 3°0.044 21.7916 0.030168 0.172192 47.857579
2009-09-18 10:03:58 51°35.052 3°0.253 21.7989 0.029447 0.167953 47.787931
2009-09-18 10:04:58 51°34.888 3°0.433 21.7959 0.029756 0.169705 47.648635
2009-09-18 10:05:58 51°34.698 3°0.534 21.8058 0.029962 0.170886 47.578987
2009-09-18 10:06:58 51°34.497 3°0.504 21.8537 0.031609 0.180448 47.474515
2009-09-18 10:07:58 51°34.303 3°0.398 21.8391 0.02955 0.168488 47.439691
2009-09-18 10:08:58 51°34.109 3°0.289 21.8274 0.029653 0.169054 47.404866
2009-09-18 10:09:58 51°33.913 3°0.189 21.8526 0.029447 0.167856 47.370042
2009-09-18 10:10:58 51°33.721 3°0.072 21.8318 0.02955 0.168445 47.335218
2009-09-18 10:11:58 51°33.529 2°59.96 21.8527 0.031814 0.181588 47.300394
2009-09-18 10:12:58 51°33.336 2°59.839 21.8831 0.030477 0.173886 47.300394
2009-09-18 10:13:58 51°33.151 2°59.707 21.8781 0.032741 0.186947 47.335218
2009-09-18 10:14:58 51°32.971 2°59.583 21.8966 0.029447 0.167853 47.335218
2009-09-18 10:15:58 51°32.799 2°59.442 21.9059 0.032535 0.18568 47.335218
2009-09-18 10:16:58 51°32.637 2°59.279 21.9144 0.029756 0.169625 47.857579
2009-09-18 10:17:58 51°32.494 2°59.076 21.935 0.029962 0.170771 47.892403
2009-09-18 10:18:58 51°32.364 2°58.855 21.9476 0.030065 0.171358 47.892403
2009-09-18 10:19:58 51°32.23 2°58.638 21.9384 0.029962 0.170811 47.892403
2009-09-18 10:20:58 51°32.095 2°58.422 21.9509 0.029653 0.168931 47.927227
2009-09-18 10:21:58 51°31.962 2°58.209 21.9588 0.029756 0.169551 47.927227
2009-09-18 10:22:58 51°31.828 2°57.998 21.9727 0.032535 0.185598 47.996875
2009-09-18 10:23:58 51°31.699 2°57.783 21.9632 0.030991 0.176677 48.066524
2009-09-18 10:24:58 51°31.572 2°57.569 22.011 0.030374 0.173046 48.101348
2009-09-18 10:25:58 51°31.444 2°57.353 21.9939 0.033564 0.191575 48.101348
2009-09-18 10:26:58 51°31.316 2°57.143 22.0117 0.029756 0.169508 48.101348
2009-09-18 10:27:58 51°31.208 2°56.907 21.9821 0.032843 0.187378 48.101348
2009-09-18 10:28:58 51°31.137 2°56.645 22.0144 0.030888 0.176016 48.170996
2009-09-18 10:29:58 51°31.092 2°56.369 22.0444 0.030579 0.17422 48.20582
2009-09-18 10:30:58 51°31.044 2°56.094 22.0434 0.031197 0.177765 48.275468
2009-09-18 10:31:58 51°30.993 2°55.819 22.0638 0.029447 0.167645 48.240644
2009-09-18 10:32:58 51°30.941 2°55.545 22.0488 0.029447 0.167649 48.275468
2009-09-18 10:33:58 51°30.887 2°55.277 22.0764 0.030374 0.173033 48.37994
2009-09-18 10:34:58 51°30.833 2°55.008 22.085 0.029756 0.169385 48.55406
2009-09-18 10:35:58 51°30.78 2°54.741 22.0802 0.029859 0.170014 48.588884
2009-09-18 10:36:58 51°30.728 2°54.474 22.1062 0.029653 0.168728 48.588884
2009-09-18 10:37:58 51°30.677 2°54.207 22.1108 0.030579 0.174105 48.55406
2009-09-18 10:38:58 51°30.626 2°53.941 22.1091 0.030477 0.173481 48.623708
2009-09-18 10:39:58 51°30.573 2°53.676 22.1223 0.030065 0.171121 48.693356
2009-09-18 10:40:58 51°30.523 2°53.412 22.1197 0.029962 0.170448 48.693356
2009-09-18 10:41:58 51°30.472 2°53.149 22.1207 0.029653 0.168676 48.693356
2009-09-18 10:42:58 51°30.421 2°52.887 22.1486 0.030991 0.176403 48.449588
2009-09-18 10:43:58 51°30.369 2°52.625 22.1577 0.029859 0.169847 48.484412
2009-09-18 10:44:58 51°30.32 2°52.363 22.1551 0.030579 0.173941 48.519236
2009-09-18 10:45:58 51°30.271 2°52.101 22.1722 0.029859 0.169804 48.519236
2009-09-18 10:46:58 51°30.224 2°51.84 22.1624 0.029653 0.168597 48.519236
2009-09-18 10:47:58 51°30.175 2°51.581 22.1815 0.030991 0.176275 48.588884
2009-09-18 10:48:58 51°30.126 2°51.319 22.1995 0.030477 0.17327 48.588884
2009-09-18 10:49:58 51°30.071 2°51.059 22.2173 0.030682 0.174501 48.623708
2009-09-18 10:50:58 51°30.01 2°50.805 22.222 0.029859 0.169706 48.658532
2009-09-18 10:51:58 51°29.952 2°50.554 22.2105 0.030888 0.175628 48.693356
2009-09-18 10:52:58 51°29.892 2°50.301 22.231 0.029859 0.16973 48.728181
2009-09-18 10:53:58 51°29.835 2°50.052 22.22 0.030682 0.174527 48.763005
2009-09-18 10:54:58 51°29.778 2°49.802 22.2496 0.029859 0.169669 48.797829
2009-09-18 10:55:58 51°29.72 2°49.55 22.2483 0.030682 0.174428 48.797829
2009-09-18 10:56:58 51°29.666 2°49.299 22.2603 0.029962 0.170254 48.867477
2009-09-18 10:57:58 51°29.611 2°49.048 22.2676 0.032535 0.185089 48.832653
2009-09-18 10:58:58 51°29.557 2°48.799 22.2819 0.030065 0.170767 48.902301
2009-09-18 10:59:58 51°29.503 2°48.55 22.2895 0.030785 0.174969 48.867477
2009-09-18 11:00:58 51°29.451 2°48.302 22.309 0.029962 0.17017 48.902301
2009-09-18 11:01:58 51°29.396 2°48.052 22.3121 0.030374 0.172497 48.902301
2009-09-18 11:02:58 51°29.337 2°47.808 22.3096 0.030374 0.172472 48.971949
2009-09-18 11:03:58 51°29.262 2°47.579 22.3112 0.029859 0.1695 49.006773
2009-09-18 11:04:58 51°29.185 2°47.348 22.3279 0.029653 0.168219 49.076421
2009-09-18 11:05:58 51°29.108 2°47.118 22.3334 0.031711 0.180152 49.041597
2009-09-18 11:06:58 51°29.033 2°46.887 22.3448 0.029962 0.170121 48.693356
2009-09-18 11:07:58 51°28.957 2°46.658 22.3438 0.029756 0.168983 48.728181
2009-09-18 11:08:58 51°28.884 2°46.426 22.3462 0.02955 0.167696 48.763005
2009-09-18 11:09:58 51°28.809 2°46.194 22.3724 0.032432 0.184253 48.832653
2009-09-18 11:10:58 51°28.736 2°45.962 22.3754 0.029653 0.168186 48.832653
2009-09-18 11:11:58 51°28.662 2°45.732 22.4045 0.032638 0.185415 49.006773
2009-09-18 11:12:58 51°28.589 2°45.503 22.3749 0.029859 0.169411 49.006773
2009-09-18 11:13:58 51°28.518 2°45.274 22.3964 0.029859 0.169356 49.041597
2009-09-18 11:14:58 51°28.451 2°45.04 22.4086 0.029962 0.169943 49.041597
2009-09-18 11:15:58 51°28.383 2°44.804 22.4121 0.029756 0.16872 49.146069
2009-09-18 11:16:58 51°28.32 2°44.568 22.4279 0.029653 0.168092 49.180893
2009-09-18 11:17:58 51°28.258 2°44.334 22.4086 0.030065 0.170508 49.146069
2009-09-18 11:18:58 51°28.196 2°44.1 22.4368 0.030271 0.171747 49.250541
2009-09-18 11:19:58 51°28.116 2°43.876 22.4549 0.031197 0.177019 49.285365
2009-09-18 11:20:58 51°28.013 2°43.668 22.4547 0.030477 0.172834 49.320189
2009-09-18 11:21:58 51°27.875 2°43.517 22.4518 0.029962 0.169866 49.285365
2009-09-18 11:22:58 51°27.728 2°43.396 22.4731 0.029859 0.169264 49.389838
2009-09-18 11:23:58 51°27.58 2°43.265 22.4693 0.031506 0.178711 49.389838
2009-09-18 11:24:58 51°27.434 2°43.134 22.4952 0.033152 0.18818 49.459486
2009-09-18 11:25:58 51°27.291 2°42.997 22.503 0.030271 0.171613 49.459486
2009-09-18 11:26:58 51°27.146 2°42.874 22.5147 0.030065 0.170443 49.389838
2009-09-18 11:27:58 51°26.981 2°42.898 22.5231 0.029756 0.168574 49.389838
2009-09-18 11:28:58 51°26.83 2°43.038 22.5136 0.029653 0.167973 49.459486
2009-09-18 11:29:58 51°26.682 2°43.194 22.5277 0.029756 0.168544 49.424662
2009-09-18 11:30:58 51°26.548 2°43.389 22.548 0.02955 0.16737 49.49431
2009-09-18 11:31:58 51°26.487 2°43.666 22.5313 0.029345 0.166166 49.563958
2009-09-18 11:32:58 51°26.529 2°43.975 22.5353 0.029242 0.165634 49.633606
2009-09-18 11:33:58 51°26.633 2°44.261 22.5435 0.029447 0.166814 49.633606
2009-09-18 11:34:58 51°26.748 2°44.538 22.5674 0.029447 0.166706 49.66843
2009-09-18 11:36:06 51°26.878 2°44.853 22.5712 0.029345 0.166163 49.738078
2009-09-18 11:37:07 51°26.987 2°45.142 22.5824 0.029859 0.169136 49.772902
2009-09-18 11:38:07 51°27.09 2°45.432 22.587 0.030065 0.170259 49.633606
2009-09-18 11:39:06 51°27.192 2°45.716 22.5828 0.029345 0.166058 49.633606
2009-09-18 11:40:07 51°27.296 2°46.009 22.6075 0.029242 0.165518 49.703254
2009-09-18 11:41:07 51°27.398 2°46.297 22.604 0.029345 0.166076 49.703254
2009-09-18 11:42:07 51°27.501 2°46.59 22.6164 0.029242 0.165509 49.772902
2009-09-18 11:43:07 51°27.606 2°46.879 22.6265 0.029242 0.16542 48.101348
2009-09-18 11:44:07 51°27.708 2°47.17 22.6283 0.029242 0.16547 48.031699
2009-09-18 11:45:07 51°27.804 2°47.466 22.6419 0.029242 0.165378 48.031699
2009-09-18 11:46:07 51°27.901 2°47.765 22.6454 0.029242 0.165363 48.170996
2009-09-18 11:47:07 51°27.998 2°48.065 22.6439 0.029242 0.165411 48.414764
2009-09-18 11:48:07 51°28.095 2°48.36 22.6514 0.029139 0.164791 48.588884
2009-09-18 11:49:07 51°28.195 2°48.657 22.6538 0.029139 0.164747 48.623708
2009-09-18 11:50:07 51°28.298 2°48.955 22.6663 0.029139 0.164756 48.658532
2009-09-18 11:51:07 51°28.398 2°49.251 22.6744 0.029139 0.164729 48.658532
2009-09-18 11:52:07 51°28.498 2°49.545 22.679 0.029242 0.165313 48.588884
2009-09-18 11:53:07 51°28.6 2°49.838 22.6957 0.029447 0.166431 48.588884
2009-09-18 11:54:07 51°28.703 2°50.133 22.7001 0.029242 0.165254 48.588884
2009-09-18 11:55:07 51°28.803 2°50.43 22.7051 0.029345 0.165865 48.588884
2009-09-18 11:56:07 51°28.904 2°50.727 22.6993 0.029242 0.16523 48.588884
2009-09-18 11:57:07 51°29.005 2°51.026 22.7161 0.029447 0.166401 48.55406
2009-09-18 11:58:07 51°29.107 2°51.324 22.7315 0.029242 0.165174 48.55406
2009-09-18 11:59:07 51°29.21 2°51.621 22.7309 0.029447 0.16638 48.414764
2009-09-18 12:00:07 51°29.311 2°51.918 22.7392 0.029345 0.165737 48.414764
2009-09-18 12:01:07 51°29.414 2°52.215 22.7477 0.029242 0.1652 48.414764
2009-09-18 12:02:07 51°29.516 2°52.512 22.7497 0.029345 0.165763 48.37994
2009-09-18 12:03:07 51°29.621 2°52.805 22.7557 0.029242 0.165132 48.345116
2009-09-18 12:04:07 51°29.725 2°53.099 22.7487 0.029242 0.1651 48.275468
2009-09-18 12:05:07 51°29.829 2°53.394 22.7697 0.029242 0.165144 48.310292
2009-09-18 12:06:07 51°29.931 2°53.69 22.7675 0.029242 0.165091 48.275468
2009-09-18 12:07:07 51°30.035 2°53.985 22.7769 0.029242 0.165082 48.310292
2009-09-18 12:08:07 51°30.139 2°54.28 22.7922 0.029242 0.165067 48.310292
2009-09-18 12:09:07 51°30.243 2°54.575 22.7957 0.029345 0.165659 48.275468
2009-09-18 12:10:07 51°30.347 2°54.872 22.8091 0.029242 0.164961 48.275468
2009-09-18 12:11:07 51°30.45 2°55.167 22.8168 0.029242 0.164946 48.240644
2009-09-18 12:12:07 51°30.552 2°55.464 22.807 0.029242 0.164961 48.240644
2009-09-18 12:13:07 51°30.655 2°55.761 22.829 0.029345 0.165562 48.275468
2009-09-18 12:14:07 51°30.76 2°56.056 22.8309 0.02955 0.166716 48.275468
2009-09-18 12:15:07 51°30.865 2°56.352 22.8346 0.029345 0.165565 48.275468
2009-09-18 12:16:07 51°30.971 2°56.649 22.8325 0.029242 0.164905 48.310292
2009-09-18 12:17:07 51°31.078 2°56.946 22.8468 0.029653 0.167197 48.310292
2009-09-18 12:18:07 51°31.185 2°57.243 22.8536 0.02955 0.166582 48.310292
2009-09-18 12:19:07 51°31.293 2°57.538 22.8595 0.029242 0.164814 48.345116
2009-09-18 12:20:07 51°31.402 2°57.835 22.8568 0.029242 0.164793 48.345116
2009-09-18 12:21:07 51°31.512 2°58.13 22.8706 0.029345 0.165399 48.345116
2009-09-18 12:22:07 51°31.624 2°58.424 22.8865 0.029242 0.16482 48.37994
2009-09-18 12:23:07 51°31.728 2°58.723 22.8864 0.029242 0.164817 48.37994
2009-09-18 12:24:07 51°31.831 2°59.023 22.8845 0.029242 0.164837 48.37994
2009-09-18 12:25:07 51°31.936 2°59.323 22.8977 0.029242 0.164814 48.37994
2009-09-18 12:26:07 51°32.04 2°59.623 22.8933 0.029345 0.165349 48.414764
2009-09-18 12:27:07 51°32.146 2°59.922 22.8991 0.029345 0.165331 48.37994
2009-09-18 12:28:07 51°32.252 3°0.219 22.9092 0.029242 0.164661 48.414764
2009-09-18 12:29:07 51°32.358 3°0.514 22.9263 0.029242 0.164661 48.449588
2009-09-18 12:30:07 51°32.463 3°0.811 22.9374 0.029345 0.165207 48.449588
2009-09-18 12:31:07 51°32.57 3°1.105 22.9281 0.029345 0.165231 48.484412
2009-09-18 12:32:07 51°32.673 3°1.399 22.9463 0.029345 0.165251 48.519236
2009-09-18 12:33:07 51°32.78 3°1.689 22.9388 0.029345 0.165251 48.484412
2009-09-18 12:34:07 51°32.88 3°1.979 22.9575 0.029242 0.164652 48.519236
2009-09-18 12:35:07 51°32.964 3°2.282 22.9661 0.029242 0.164593 48.55406
2009-09-18 12:36:06 51°33.049 3°2.577 22.9673 0.029447 0.165736 48.55406
2009-09-18 12:37:07 51°33.108 3°2.89 22.9772 0.030785 0.173366 48.588884
2009-09-18 12:38:07 51°33.121 3°3.207 22.9524 0.02955 0.166326 48.588884
2009-09-18 12:39:21 51°33.045 3°3.551 22.9922 0.030476 0.171529 48.55406
2009-09-18 12:40:21 51°32.916 3°3.755 22.9997 0.030991 0.17451 48.519236
2009-09-18 12:41:21 51°32.777 3°3.948 22.9993 0.029756 0.167358 48.55406
2009-09-18 12:42:21 51°32.638 3°4.144 23.0172 0.030476 0.171431 48.55406
2009-09-18 12:43:21 51°32.503 3°4.34 23.0153 0.030991 0.174441 48.55406
2009-09-18 12:44:21 51°32.37 3°4.54 23.0329 0.030065 0.16912 48.55406
2009-09-18 12:45:22 51°32.237 3°4.743 23.0366 0.030065 0.169075 48.588884
2009-09-18 12:46:21 51°32.109 3°4.937 23.0107 0.030682 0.172573 48.588884
2009-09-18 12:47:21 51°31.959 3°5.018 23.023 0.030374 0.170898 48.55406
2009-09-18 12:48:21 51°31.834 3°4.915 23.0498 0.033255 0.187316 48.588884
2009-09-18 12:49:21 51°31.753 3°4.711 23.0573 0.03202 0.180135 48.588884
2009-09-18 12:50:21 51°31.676 3°4.495 23.0556 0.030579 0.171918 48.623708
2009-09-18 12:51:21 51°31.592 3°4.286 23.0616 0.029859 0.167742 48.658532
2009-09-18 12:52:21 51°31.512 3°4.081 23.0804 0.031814 0.178831 48.658532
2009-09-18 12:53:21 51°31.432 3°3.873 23.0832 0.030374 0.170594 48.658532
2009-09-18 12:54:21 51°31.349 3°3.664 23.0883 0.030888 0.173483 48.658532
2009-09-18 12:55:21 51°31.262 3°3.457 23.0904 0.030682 0.172355 48.693356
2009-09-18 12:56:21 51°31.172 3°3.249 23.0753 0.031711 0.178118 48.763005
2009-09-18 12:57:21 51°31.085 3°3.043 23.1077 0.032123 0.180465 48.658532
2009-09-18 12:58:21 51°30.999 3°2.838 23.0925 0.03202 0.180031 48.728181
2009-09-18 12:59:21 51°30.912 3°2.639 23.1377 0.034078 0.191667 48.763005
2009-09-18 13:00:21 51°30.829 3°2.435 23.1162 0.030065 0.168792 48.763005
2009-09-18 13:01:21 51°30.744 3°2.231 23.127 0.030065 0.168753 48.867477
2009-09-18 13:02:21 51°30.66 3°2.029 23.1183 0.032432 0.182175 48.902301
2009-09-18 13:03:21 51°30.575 3°1.825 23.1518 0.030579 0.171587 48.971949
2009-09-18 13:04:21 51°30.491 3°1.623 23.167 0.032226 0.180888 49.041597
2009-09-18 13:05:21 51°30.408 3°1.42 23.1606 0.030374 0.170433 49.006773
2009-09-18 13:06:21 51°30.323 3°1.214 23.1611 0.030065 0.168641 49.006773
2009-09-18 13:07:21 51°30.238 3°1.006 23.1632 0.029962 0.167999 49.006773
2009-09-18 13:08:21 51°30.154 3°0.804 23.1772 0.031917 0.179211 49.006773
2009-09-18 13:09:21 51°30.072 3°0.6 23.1735 0.03274 0.183796 49.006773
2009-09-18 13:10:21 51°29.988 3°0.397 23.1777 0.032329 0.18146 49.006773
2009-09-18 13:11:21 51°29.905 3°0.197 23.191 0.030991 0.173809 49.041597
2009-09-18 13:12:21 51°29.821 2°59.996 23.2211 0.032123 0.18021 49.041597
2009-09-18 13:13:21 51°29.739 2°59.791 23.1965 0.032329 0.18144 49.041597
2009-09-18 13:14:21 51°29.654 2°59.586 23.2094 0.031917 0.17898 49.041597
2009-09-18 13:15:21 51°29.572 2°59.382 23.2077 0.031917 0.179057 49.076421
2009-09-18 13:16:21 51°29.488 2°59.178 23.2117 0.030476 0.170842 49.041597
2009-09-18 13:17:21 51°29.404 2°58.974 23.226 0.031506 0.176614 49.076421
2009-09-18 13:18:21 51°29.321 2°58.765 23.2282 0.032432 0.181859 49.111245
2009-09-18 13:19:21 51°29.239 2°58.557 23.2352 0.031711 0.177673 49.111245
2009-09-18 13:20:21 51°29.156 2°58.349 23.2458 0.031197 0.174696 49.111245
2009-09-18 13:21:21 51°29.071 2°58.144 23.2586 0.033049 0.185177 49.146069
2009-09-18 13:22:21 51°28.987 2°57.937 23.2623 0.030168 0.168777 49.146069
2009-09-18 13:23:21 51°28.902 2°57.73 23.2803 0.032123 0.179875 49.146069
2009-09-18 13:24:21 51°28.818 2°57.522 23.2769 0.030065 0.168146 49.180893
2009-09-18 13:25:21 51°28.74 2°57.304 23.2933 0.032638 0.182717 49.215717
2009-09-18 13:26:21 51°28.665 2°57.084 23.2704 0.030991 0.173309 49.215717
2009-09-18 13:27:21 51°28.59 2°56.865 23.2717 0.030374 0.169831 49.285365
2009-09-18 13:28:21 51°28.515 2°56.647 23.2857 0.031094 0.173842 49.285365
2009-09-18 13:29:21 51°28.44 2°56.429 23.2994 0.030476 0.170301 49.320189
2009-09-18 13:30:21 51°28.364 2°56.211 23.3109 0.030374 0.169675 49.355013
2009-09-18 13:31:21 51°28.287 2°55.992 23.3201 0.030271 0.169095 49.389838
2009-09-18 13:32:21 51°28.209 2°55.773 23.3129 0.030682 0.171429 49.389838
2009-09-18 13:33:21 51°28.132 2°55.551 23.3163 0.033049 0.184856 49.389838
2009-09-18 13:34:21 51°28.055 2°55.331 23.3307 0.030682 0.171341 49.49431
2009-09-18 13:35:21 51°27.978 2°55.109 23.3347 0.03202 0.178865 49.459486
2009-09-18 13:36:21 51°27.901 2°54.887 23.359 0.032843 0.183474 49.49431
2009-09-18 13:37:21 51°27.825 2°54.668 23.3412 0.030785 0.171836 49.529134
2009-09-18 13:38:21 51°27.747 2°54.447 23.3564 0.0313 0.174756 49.529134
2009-09-18 13:39:21 51°27.667 2°54.226 23.3406 0.032226 0.179961 48.971949
2009-09-18 13:40:16 51°27.594 2°54.027 23.3449 0.030579 0.170625 48.971949
2009-09-18 13:41:23 51°27.506 2°53.78 23.3734 0.032843 0.183415 49.041597
2009-09-18 13:42:23 51°27.431 2°53.558 23.3644 0.035107 0.196187 49.041597
2009-09-18 13:43:23 51°27.352 2°53.336 23.3775 0.030271 0.168743 49.076421
2009-09-18 13:44:23 51°27.273 2°53.113 23.3938 0.032123 0.179185 49.076421
2009-09-18 13:45:23 51°27.195 2°52.891 23.3996 0.030271 0.168693 49.146069
2009-09-18 13:46:22 51°27.117 2°52.675 23.407 0.031197 0.173892 49.146069
2009-09-18 13:47:23 51°27.036 2°52.454 23.3943 0.033152 0.184869 49.215717
2009-09-18 13:48:23 51°26.953 2°52.24 23.412 0.031197 0.173911 49.076421
2009-09-18 13:49:23 51°26.867 2°52.027 23.414 0.032637 0.181974 49.111245
2009-09-18 13:50:23 51°26.782 2°51.812 23.4232 0.032535 0.181364 49.146069
2009-09-18 13:51:23 51°26.696 2°51.598 23.4207 0.032123 0.178982 49.180893
2009-09-18 13:52:23 51°26.612 2°51.383 23.4349 0.031917 0.177895 49.215717
2009-09-18 13:53:23 51°26.527 2°51.169 23.4452 0.030785 0.171345 49.250541
2009-09-18 13:54:23 51°26.441 2°50.953 23.449 0.030682 0.170716 49.250541
2009-09-18 13:55:23 51°26.357 2°50.742 23.4365 0.031814 0.177199 49.250541
2009-09-18 13:56:23 51°26.27 2°50.53 23.4537 0.030785 0.171421 49.285365
2009-09-18 13:57:23 51°26.186 2°50.316 23.4442 0.032843 0.182905 49.389838
2009-09-18 13:58:23 51°26.1 2°50.102 23.4627 0.031197 0.173665 49.389838
2009-09-18 13:59:23 51°26.016 2°49.887 23.4951 0.030785 0.171276 49.424662
2009-09-18 14:00:22 51°25.935 2°49.673 23.4743 0.031917 0.177556 49.424662
2009-09-18 14:01:23 51°25.849 2°49.456 23.4825 0.031711 0.176364 49.49431
2009-09-18 14:02:23 51°25.767 2°49.242 23.4772 0.03521 0.196192 49.459486
2009-09-18 14:03:23 51°25.682 2°49.032 23.4708 0.033769 0.187973 49.529134
2009-09-18 14:04:23 51°25.599 2°48.815 23.4824 0.032637 0.181478 49.563958
2009-09-18 14:05:23 51°25.515 2°48.598 23.5085 0.032432 0.180307 49.563958
2009-09-18 14:06:23 51°25.431 2°48.376 23.4935 0.033358 0.185477 49.598782
2009-09-18 14:07:23 51°25.344 2°48.152 23.5227 0.031917 0.177399 49.633606
2009-09-18 14:08:23 51°25.26 2°47.928 23.5424 0.031403 0.174438 49.529134
2009-09-18 14:09:23 51°25.163 2°47.717 23.5392 0.030888 0.17148 49.598782
2009-09-18 14:10:23 51°25.05 2°47.527 23.5402 0.032637 0.181282 49.180893
2009-09-18 14:11:23 51°24.935 2°47.344 23.517 0.032329 0.179523 49.180893
2009-09-18 14:12:23 51°24.818 2°47.16 23.5621 0.030476 0.169055 49.250541
2009-09-18 14:13:23 51°24.702 2°46.975 23.5593 0.033049 0.183561 49.355013
2009-09-18 14:14:23 51°24.587 2°46.788 23.5641 0.033564 0.186409 49.389838
2009-09-18 14:15:23 51°24.471 2°46.599 23.5599 0.033358 0.185127 49.459486
2009-09-18 14:16:23 51°24.356 2°46.41 23.5494 0.033564 0.186349 49.459486
2009-09-18 14:17:23 51°24.242 2°46.22 23.5751 0.031608 0.175245 49.49431
2009-09-18 14:18:23 51°24.125 2°46.032 23.583 0.0313 0.173477 49.563958
2009-09-18 14:19:23 51°24.005 2°45.849 23.58 0.031917 0.176947 49.633606
2009-09-18 14:20:23 51°23.866 2°45.704 23.5728 0.035313 0.195984 49.633606
2009-09-18 14:21:23 51°23.707 2°45.639 23.6087 0.03202 0.177471 49.66843
2009-09-18 14:22:23 51°23.546 2°45.719 23.6122 0.032226 0.178542 49.703254
2009-09-18 14:23:23 51°23.395 2°45.867 23.594 0.030991 0.171596 49.738078
2009-09-18 14:24:23 51°23.243 2°46.014 23.5912 0.030785 0.170419 49.111245
2009-09-18 14:25:23 51°23.094 2°46.162 23.6195 0.032226 0.178505 49.215717
2009-09-18 14:26:23 51°22.941 2°46.31 23.6229 0.030476 0.168572 49.250541
2009-09-18 14:27:23 51°22.794 2°46.468 23.6217 0.030579 0.169161 49.320189
2009-09-18 14:28:23 51°22.647 2°46.623 23.6406 0.031917 0.176624 49.355013
2009-09-18 14:29:23 51°22.504 2°46.786 23.6244 0.030579 0.169113 49.389838
2009-09-18 14:30:23 51°22.391 2°47.007 23.6508 0.030579 0.169066 49.459486
2009-09-18 14:31:23 51°22.318 2°47.274 23.6374 0.030271 0.167258 48.797829
2009-09-18 14:32:23 51°22.244 2°47.545 23.6497 0.030682 0.169575 48.832653
2009-09-18 14:33:23 51°22.134 2°47.781 23.6433 0.031814 0.175947 48.937125
2009-09-18 14:34:23 51°21.981 2°47.927 23.6558 0.030682 0.16959 49.006773
2009-09-18 14:35:23 51°21.821 2°48.054 23.6431 0.030579 0.168955 49.076421
2009-09-18 14:36:23 51°21.665 2°48.202 23.6453 0.030682 0.169484 49.146069
2009-09-18 14:37:23 51°21.512 2°48.357 23.6589 0.030682 0.169457 49.180893
2009-09-18 14:38:23 51°21.358 2°48.512 23.6437 0.031403 0.173494 49.180893
2009-09-18 14:39:23 51°21.206 2°48.667 23.6741 0.030682 0.169469 49.285365
2009-09-18 14:40:23 51°21.051 2°48.812 23.6777 0.030579 0.16884 49.250541
2009-09-18 14:41:23 51°20.893 2°48.948 23.6819 0.032637 0.180357 48.971949
2009-09-18 14:42:23 51°20.737 2°49.091 23.6711 0.031917 0.176307 48.971949
2009-09-18 14:43:23 51°20.582 2°49.234 23.6945 0.030682 0.169366 49.006773
2009-09-18 14:44:23 51°20.426 2°49.378 23.6891 0.031094 0.171676 48.902301
2009-09-18 14:45:23 51°20.271 2°49.522 23.6865 0.030476 0.168083 48.971949
2009-09-18 14:46:23 51°20.116 2°49.667 23.6989 0.030579 0.168693 48.937125
2009-09-18 14:47:23 51°19.962 2°49.812 23.7082 0.031403 0.173327 48.937125
2009-09-18 14:48:23 51°19.807 2°49.952 23.7122 0.031608 0.174365 48.867477
2009-09-18 14:49:23 51°19.649 2°50.085 23.7144 0.030785 0.169871 48.797829
2009-09-18 14:50:23 51°19.491 2°50.216 23.7287 0.030991 0.171002 48.763005
2009-09-18 14:51:23 51°19.333 2°50.348 23.7274 0.030579 0.168608 48.763005
2009-09-18 14:52:23 51°19.175 2°50.48 23.7312 0.030373 0.167314 48.797829
2009-09-18 14:53:23 51°19.018 2°50.615 23.7106 0.032226 0.177722 48.728181
2009-09-18 14:54:23 51°18.863 2°50.751 23.731 0.033564 0.185238 48.763005
2009-09-18 14:55:23 51°18.706 2°50.887 23.7503 0.030888 0.170257 48.797829
2009-09-18 14:56:23 51°18.555 2°51.038 23.7448 0.030991 0.170818 48.728181
2009-09-18 14:57:23 51°18.408 2°51.205 23.7484 0.033255 0.183427 48.937125
2009-09-18 14:58:23 51°18.265 2°51.374 23.7426 0.030991 0.1708 48.588884
2009-09-18 14:59:23 51°18.118 2°51.535 23.7737 0.030888 0.170136 48.763005
2009-09-18 15:00:23 51°17.97 2°51.688 23.7667 0.031711 0.174737 48.728181
2009-09-18 15:01:23 51°17.821 2°51.841 23.7902 0.033769 0.186189 48.797829
2009-09-18 15:02:23 51°17.666 2°51.975 23.77 0.031403 0.173017 48.867477
2009-09-18 15:03:23 51°17.505 2°52.096 23.7841 0.030991 0.170616 48.937125
2009-09-18 15:04:23 51°17.343 2°52.217 23.7732 0.031711 0.174634 48.971949
2009-09-18 15:05:23 51°17.183 2°52.341 23.7969 0.030373 0.167166 48.971949
2009-09-18 15:06:23 51°17.028 2°52.478 23.7901 0.033666 0.185605 48.971949
2009-09-18 15:07:23 51°16.873 2°52.615 23.7956 0.030682 0.16887 48.971949
2009-09-18 15:08:23 51°16.716 2°52.75 23.7872 0.031094 0.171087 48.971949
2009-09-18 15:09:23 51°16.559 2°52.891 23.796 0.030579 0.16825 48.971949
2009-09-18 15:10:23 51°16.4 2°53.033 23.8189 0.030579 0.168206 49.006773
2009-09-18 15:11:23 51°16.238 2°53.168 23.7833 0.030373 0.167045 49.006773
2009-09-18 15:12:23 51°16.078 2°53.307 23.8126 0.030476 0.167557 49.006773
2009-09-18 15:13:23 51°15.914 2°53.441 23.7817 0.030579 0.168113 49.041597
2009-09-18 15:14:23 51°15.754 2°53.577 23.8244 0.0313 0.172107 49.041597
2009-09-18 15:15:23 51°15.592 2°53.708 23.7981 0.0313 0.172158 49.041597
2009-09-18 15:16:23 51°15.431 2°53.846 23.8329 0.033255 0.182931 49.006773
2009-09-18 15:17:23 51°15.272 2°53.985 23.8146 0.031608 0.173872 49.006773
2009-09-18 15:18:23 51°15.116 2°54.127 23.8217 0.030579 0.167991 49.076421
2009-09-18 15:19:23 51°14.961 2°54.27 23.8234 0.030579 0.167997 49.041597
2009-09-18 15:20:23 51°14.803 2°54.408 23.8274 0.030682 0.168576 49.111245
2009-09-18 15:21:23 51°14.656 2°54.575 23.8336 0.030373 0.16686 49.076421
2009-09-18 15:22:23 51°14.516 2°54.758 23.8416 0.030476 0.167367 49.146069
2009-09-18 15:23:23 51°14.391 2°54.964 23.8416 0.030888 0.169619 49.180893
2009-09-18 15:24:23 51°14.285 2°55.192 23.8397 0.030271 0.166088 49.180893